Main page
METAR-TAF:

METAR-TAF

Airports :

Port Harcourt International Airport

Port Harcourt, Nigeria

latitude: 04-51N, longitude: 007-01E, elevation: 18 m

Current weather observation

The report was made 2 hours and 26 minutes ago, at 01:00 UTC
Calm wind
Temperature 24°C
Humidity 94%
Pressure 1011 hPa
Visibility: 6000 m
Broken clouds at a height of 700 ft

METAR: DNPO 150100Z 00000KT 6000 BKN007 24/23 Q1011 NOSIG

Time: 04:26 (03:26 UTC)


TAF: missing

Weather observations and forecasts of more than 4000 airports (METAR and TAF reports).

The available stations are represented by yellow and red dots on the map.

Hover mouse over dot to see the name of the station.

Then click to see weather observations and forecasts.

To change the map : click on the green buttons with a black cross to zoom in, on the green button with a dash to zoom out, or on the green arrows for adjacent maps.


METAR-TAF: